sensor_id;sensor_type;location;lat;lon;timestamp;pressure;altitude;pressure_sealevel;temperature;humidity
13080;BME280;6606;49.154;9.280;2022-12-31T00:00:53;99338.75;;;14.13;100.00
13080;BME280;6606;49.154;9.280;2022-12-31T00:03:35;99341.41;;;14.13;100.00
13080;BME280;6606;49.154;9.280;2022-12-31T00:06:22;99337.91;;;13.99;100.00
13080;BME280;6606;49.154;9.280;2022-12-31T00:09:05;99343.97;;;14.01;100.00
13080;BME280;6606;49.154;9.280;2022-12-31T00:11:47;99352.19;;;13.98;100.00
13080;BME280;6606;49.154;9.280;2022-12-31T00:14:29;99352.59;;;14.05;100.00
13080;BME280;6606;49.154;9.280;2022-12-31T00:17:11;99357.84;;;13.94;100.00
13080;BME280;6606;49.154;9.280;2022-12-31T00:19:52;99359.00;;;13.77;100.00
13080;BME280;6606;49.154;9.280;2022-12-31T00:22:35;99361.88;;;13.74;100.00
13080;BME280;6606;49.154;9.280;2022-12-31T00:25:17;99362.44;;;13.79;100.00
13080;BME280;6606;49.154;9.280;2022-12-31T00:27:59;99361.44;;;13.67;100.00
13080;BME280;6606;49.154;9.280;2022-12-31T00:30:40;99362.69;;;13.49;100.00
13080;BME280;6606;49.154;9.280;2022-12-31T00:33:22;99368.56;;;13.67;100.00
13080;BME280;6606;49.154;9.280;2022-12-31T00:36:06;99369.22;;;13.83;100.00
13080;BME280;6606;49.154;9.280;2022-12-31T00:38:50;99373.09;;;13.79;100.00
13080;BME280;6606;49.154;9.280;2022-12-31T00:41:33;99375.63;;;13.80;100.00
13080;BME280;6606;49.154;9.280;2022-12-31T00:44:15;99371.13;;;13.81;100.00
13080;BME280;6606;49.154;9.280;2022-12-31T00:46:56;99373.38;;;13.74;100.00
13080;BME280;6606;49.154;9.280;2022-12-31T00:49:38;99380.72;;;13.83;100.00
13080;BME280;6606;49.154;9.280;2022-12-31T00:52:19;99368.38;;;13.82;100.00
13080;BME280;6606;49.154;9.280;2022-12-31T00:55:03;99371.34;;;13.65;100.00
13080;BME280;6606;49.154;9.280;2022-12-31T00:57:45;99376.13;;;13.60;100.00
13080;BME280;6606;49.154;9.280;2022-12-31T01:00:26;99380.84;;;13.69;100.00
13080;BME280;6606;49.154;9.280;2022-12-31T01:03:09;99393.50;;;13.66;100.00
13080;BME280;6606;49.154;9.280;2022-12-31T01:05:51;99392.34;;;13.70;100.00
13080;BME280;6606;49.154;9.280;2022-12-31T01:08:33;99397.53;;;13.58;100.00
13080;BME280;6606;49.154;9.280;2022-12-31T01:11:16;99396.72;;;13.71;100.00
13080;BME280;6606;49.154;9.280;2022-12-31T01:14:04;99386.81;;;13.85;100.00
13080;BME280;6606;49.154;9.280;2022-12-31T01:16:47;99390.53;;;13.83;100.00
13080;BME280;6606;49.154;9.280;2022-12-31T01:19:30;99397.38;;;13.87;100.00
13080;BME280;6606;49.154;9.280;2022-12-31T01:22:11;99403.34;;;13.91;100.00
13080;BME280;6606;49.154;9.280;2022-12-31T01:24:53;99408.91;;;14.00;100.00
13080;BME280;6606;49.154;9.280;2022-12-31T01:27:36;99409.31;;;14.07;100.00
13080;BME280;6606;49.154;9.280;2022-12-31T01:30:18;99410.38;;;14.04;100.00
13080;BME280;6606;49.154;9.280;2022-12-31T01:32:59;99422.22;;;14.26;100.00
13080;BME280;6606;49.154;9.280;2022-12-31T01:35:41;99431.06;;;14.39;100.00
13080;BME280;6606;49.154;9.280;2022-12-31T01:38:23;99431.94;;;14.40;100.00
13080;BME280;6606;49.154;9.280;2022-12-31T01:41:05;99434.47;;;14.41;100.00
13080;BME280;6606;49.154;9.280;2022-12-31T01:43:51;99439.19;;;14.50;100.00
13080;BME280;6606;49.154;9.280;2022-12-31T01:46:36;99420.88;;;14.59;100.00
13080;BME280;6606;49.154;9.280;2022-12-31T01:49:21;99437.91;;;14.69;100.00
13080;BME280;6606;49.154;9.280;2022-12-31T01:52:06;99434.59;;;14.78;100.00
13080;BME280;6606;49.154;9.280;2022-12-31T01:54:53;99436.41;;;14.78;100.00
13080;BME280;6606;49.154;9.280;2022-12-31T01:57:36;99448.16;;;14.75;100.00
13080;BME280;6606;49.154;9.280;2022-12-31T02:00:20;99451.13;;;14.83;100.00
13080;BME280;6606;49.154;9.280;2022-12-31T02:03:02;99439.47;;;14.84;100.00
13080;BME280;6606;49.154;9.280;2022-12-31T02:05:50;99434.59;;;14.78;100.00
13080;BME280;6606;49.154;9.280;2022-12-31T02:08:35;99440.16;;;14.75;100.00
13080;BME280;6606;49.154;9.280;2022-12-31T02:11:21;99444.94;;;14.70;100.00
13080;BME280;6606;49.154;9.280;2022-12-31T02:14:06;99429.91;;;14.69;100.00
13080;BME280;6606;49.154;9.280;2022-12-31T02:16:53;99455.84;;;14.67;100.00
13080;BME280;6606;49.154;9.280;2022-12-31T02:20:18;99447.53;;;14.59;100.00
13080;BME280;6606;49.154;9.280;2022-12-31T02:26:36;99443.66;;;14.63;100.00
13080;BME280;6606;49.154;9.280;2022-12-31T02:32:59;99428.22;;;14.42;100.00
13080;BME280;6606;49.154;9.280;2022-12-31T02:35:47;99435.78;;;14.36;100.00
13080;BME280;6606;49.154;9.280;2022-12-31T02:38:33;99437.69;;;14.46;100.00
13080;BME280;6606;49.154;9.280;2022-12-31T02:41:17;99453.28;;;14.52;100.00
13080;BME280;6606;49.154;9.280;2022-12-31T02:44:21;99441.94;;;14.49;100.00
13080;BME280;6606;49.154;9.280;2022-12-31T02:47:12;99446.53;;;14.47;100.00
13080;BME280;6606;49.154;9.280;2022-12-31T02:50:09;99455.19;;;14.50;100.00
13080;BME280;6606;49.154;9.280;2022-12-31T02:52:57;99455.63;;;14.70;100.00
13080;BME280;6606;49.154;9.280;2022-12-31T02:55:48;99442.28;;;14.83;100.00
13080;BME280;6606;49.154;9.280;2022-12-31T02:58:38;99450.16;;;14.84;100.00
13080;BME280;6606;49.154;9.280;2022-12-31T03:01:43;99438.53;;;14.85;100.00
13080;BME280;6606;49.154;9.280;2022-12-31T03:04:47;99439.22;;;15.00;100.00
13080;BME280;6606;49.154;9.280;2022-12-31T03:07:31;99444.69;;;14.99;100.00
13080;BME280;6606;49.154;9.280;2022-12-31T03:10:13;99436.78;;;14.97;100.00
13080;BME280;6606;49.154;9.280;2022-12-31T03:12:55;99441.50;;;14.93;100.00
13080;BME280;6606;49.154;9.280;2022-12-31T03:15:36;99439.28;;;14.87;100.00
13080;BME280;6606;49.154;9.280;2022-12-31T03:18:18;99440.19;;;14.99;100.00
13080;BME280;6606;49.154;9.280;2022-12-31T03:21:21;99442.09;;;15.10;100.00
13080;BME280;6606;49.154;9.280;2022-12-31T03:24:23;99433.53;;;15.17;100.00
13080;BME280;6606;49.154;9.280;2022-12-31T03:27:22;99438.66;;;15.08;100.00
13080;BME280;6606;49.154;9.280;2022-12-31T03:30:05;99436.00;;;15.08;100.00
13080;BME280;6606;49.154;9.280;2022-12-31T03:32:47;99442.38;;;15.18;100.00
13080;BME280;6606;49.154;9.280;2022-12-31T03:35:31;99454.25;;;15.14;100.00
13080;BME280;6606;49.154;9.280;2022-12-31T03:38:13;99461.28;;;15.15;100.00
13080;BME280;6606;49.154;9.280;2022-12-31T03:40:56;99462.59;;;15.09;100.00
13080;BME280;6606;49.154;9.280;2022-12-31T03:43:39;99453.91;;;15.18;100.00
13080;BME280;6606;49.154;9.280;2022-12-31T03:46:22;99455.94;;;15.15;100.00
13080;BME280;6606;49.154;9.280;2022-12-31T03:49:04;99467.09;;;15.09;100.00
13080;BME280;6606;49.154;9.280;2022-12-31T03:51:46;99457.44;;;15.19;100.00
13080;BME280;6606;49.154;9.280;2022-12-31T03:54:27;99444.69;;;15.35;100.00
13080;BME280;6606;49.154;9.280;2022-12-31T03:57:10;99440.06;;;15.37;100.00
13080;BME280;6606;49.154;9.280;2022-12-31T03:59:52;99459.16;;;15.20;100.00
13080;BME280;6606;49.154;9.280;2022-12-31T04:02:34;99454.78;;;15.19;100.00
13080;BME280;6606;49.154;9.280;2022-12-31T04:05:17;99460.63;;;15.24;100.00
13080;BME280;6606;49.154;9.280;2022-12-31T04:07:59;99465.66;;;15.16;100.00
13080;BME280;6606;49.154;9.280;2022-12-31T04:10:42;99457.03;;;15.12;100.00
13080;BME280;6606;49.154;9.280;2022-12-31T04:13:25;99454.28;;;15.01;100.00
13080;BME280;6606;49.154;9.280;2022-12-31T04:16:07;99465.06;;;15.00;100.00
13080;BME280;6606;49.154;9.280;2022-12-31T04:18:48;99461.16;;;14.92;100.00
13080;BME280;6606;49.154;9.280;2022-12-31T04:21:30;99463.91;;;14.91;100.00
13080;BME280;6606;49.154;9.280;2022-12-31T04:24:12;99465.28;;;14.97;100.00
13080;BME280;6606;49.154;9.280;2022-12-31T04:26:54;99458.56;;;15.04;100.00
13080;BME280;6606;49.154;9.280;2022-12-31T04:29:37;99468.78;;;15.10;100.00
13080;BME280;6606;49.154;9.280;2022-12-31T04:32:19;99458.84;;;15.12;100.00
13080;BME280;6606;49.154;9.280;2022-12-31T04:35:01;99474.41;;;15.18;100.00
13080;BME280;6606;49.154;9.280;2022-12-31T04:37:43;99476.81;;;15.34;100.00
13080;BME280;6606;49.154;9.280;2022-12-31T04:40:24;99477.19;;;15.53;100.00
13080;BME280;6606;49.154;9.280;2022-12-31T04:43:06;99468.81;;;15.58;100.00
13080;BME280;6606;49.154;9.280;2022-12-31T04:45:49;99477.97;;;15.67;100.00
13080;BME280;6606;49.154;9.280;2022-12-31T04:48:31;99493.13;;;15.66;100.00
13080;BME280;6606;49.154;9.280;2022-12-31T04:51:13;99486.81;;;15.56;100.00
13080;BME280;6606;49.154;9.280;2022-12-31T04:53:55;99484.56;;;15.50;100.00
13080;BME280;6606;49.154;9.280;2022-12-31T04:56:37;99488.50;;;15.57;100.00
13080;BME280;6606;49.154;9.280;2022-12-31T04:59:18;99471.19;;;15.50;100.00
13080;BME280;6606;49.154;9.280;2022-12-31T05:02:01;99490.66;;;15.52;100.00
13080;BME280;6606;49.154;9.280;2022-12-31T05:04:43;99492.28;;;15.66;100.00
13080;BME280;6606;49.154;9.280;2022-12-31T05:07:25;99490.59;;;15.65;100.00
13080;BME280;6606;49.154;9.280;2022-12-31T05:10:07;99496.78;;;15.65;100.00
13080;BME280;6606;49.154;9.280;2022-12-31T05:12:49;99490.41;;;15.55;100.00
13080;BME280;6606;49.154;9.280;2022-12-31T05:15:31;99497.47;;;15.56;100.00
13080;BME280;6606;49.154;9.280;2022-12-31T05:18:14;99495.75;;;15.55;100.00
13080;BME280;6606;49.154;9.280;2022-12-31T05:20:56;99500.53;;;15.38;100.00
13080;BME280;6606;49.154;9.280;2022-12-31T05:23:38;99520.84;;;15.28;100.00
13080;BME280;6606;49.154;9.280;2022-12-31T05:26:19;99521.03;;;15.38;100.00
13080;BME280;6606;49.154;9.280;2022-12-31T05:29:01;99518.00;;;15.43;100.00
13080;BME280;6606;49.154;9.280;2022-12-31T05:31:43;99516.31;;;15.42;100.00
13080;BME280;6606;49.154;9.280;2022-12-31T05:34:26;99508.59;;;15.50;100.00
13080;BME280;6606;49.154;9.280;2022-12-31T05:37:08;99499.13;;;15.46;100.00
13080;BME280;6606;49.154;9.280;2022-12-31T05:39:49;99510.53;;;15.48;100.00
13080;BME280;6606;49.154;9.280;2022-12-31T05:42:31;99508.31;;;15.78;100.00
13080;BME280;6606;49.154;9.280;2022-12-31T05:45:13;99510.28;;;15.88;100.00
13080;BME280;6606;49.154;9.280;2022-12-31T05:47:55;99512.50;;;15.94;100.00
13080;BME280;6606;49.154;9.280;2022-12-31T05:50:38;99518.09;;;15.91;100.00
13080;BME280;6606;49.154;9.280;2022-12-31T05:53:22;99514.44;;;15.92;100.00
13080;BME280;6606;49.154;9.280;2022-12-31T05:56:04;99521.97;;;15.98;100.00
13080;BME280;6606;49.154;9.280;2022-12-31T05:58:46;99523.47;;;16.02;100.00
13080;BME280;6606;49.154;9.280;2022-12-31T06:01:28;99530.66;;;16.01;100.00
13080;BME280;6606;49.154;9.280;2022-12-31T06:04:10;99520.53;;;15.94;100.00
13080;BME280;6606;49.154;9.280;2022-12-31T06:06:53;99536.28;;;15.86;100.00
13080;BME280;6606;49.154;9.280;2022-12-31T06:09:35;99534.16;;;16.02;100.00
13080;BME280;6606;49.154;9.280;2022-12-31T06:12:18;99539.28;;;16.05;100.00
13080;BME280;6606;49.154;9.280;2022-12-31T06:15:00;99537.00;;;16.12;100.00
13080;BME280;6606;49.154;9.280;2022-12-31T06:17:43;99550.72;;;16.07;100.00
13080;BME280;6606;49.154;9.280;2022-12-31T06:20:25;99548.78;;;16.09;100.00
13080;BME280;6606;49.154;9.280;2022-12-31T06:23:08;99552.19;;;16.11;100.00
13080;BME280;6606;49.154;9.280;2022-12-31T06:25:50;99562.97;;;15.98;100.00
13080;BME280;6606;49.154;9.280;2022-12-31T06:28:32;99559.31;;;15.99;100.00
13080;BME280;6606;49.154;9.280;2022-12-31T06:31:14;99562.25;;;16.08;100.00
13080;BME280;6606;49.154;9.280;2022-12-31T06:33:56;99569.94;;;16.12;100.00
13080;BME280;6606;49.154;9.280;2022-12-31T06:36:37;99570.91;;;16.11;100.00
13080;BME280;6606;49.154;9.280;2022-12-31T06:39:20;99573.13;;;16.17;100.00
13080;BME280;6606;49.154;9.280;2022-12-31T06:42:02;99576.81;;;16.27;100.00
13080;BME280;6606;49.154;9.280;2022-12-31T06:44:44;99565.38;;;16.25;100.00
13080;BME280;6606;49.154;9.280;2022-12-31T06:47:26;99574.59;;;16.21;100.00
13080;BME280;6606;49.154;9.280;2022-12-31T06:50:08;99580.16;;;16.18;100.00
13080;BME280;6606;49.154;9.280;2022-12-31T06:52:49;99576.97;;;16.13;100.00
13080;BME280;6606;49.154;9.280;2022-12-31T06:55:33;99585.56;;;16.30;100.00
13080;BME280;6606;49.154;9.280;2022-12-31T06:58:16;99580.78;;;16.22;100.00
13080;BME280;6606;49.154;9.280;2022-12-31T07:01:02;99589.97;;;16.31;100.00
13080;BME280;6606;49.154;9.280;2022-12-31T07:03:53;99584.84;;;16.27;100.00
13080;BME280;6606;49.154;9.280;2022-12-31T07:06:42;99583.00;;;16.28;100.00
13080;BME280;6606;49.154;9.280;2022-12-31T07:09:35;99585.34;;;16.33;100.00
13080;BME280;6606;49.154;9.280;2022-12-31T07:12:29;99586.88;;;16.24;100.00
13080;BME280;6606;49.154;9.280;2022-12-31T07:15:18;99591.63;;;16.20;100.00
13080;BME280;6606;49.154;9.280;2022-12-31T07:18:09;99584.34;;;16.22;100.00
13080;BME280;6606;49.154;9.280;2022-12-31T07:20:54;99596.69;;;16.12;100.00
13080;BME280;6606;49.154;9.280;2022-12-31T07:23:36;99587.56;;;16.15;100.00
13080;BME280;6606;49.154;9.280;2022-12-31T07:26:21;99585.41;;;16.20;100.00
13080;BME280;6606;49.154;9.280;2022-12-31T07:29:15;99587.22;;;16.19;100.00
13080;BME280;6606;49.154;9.280;2022-12-31T07:32:07;99595.66;;;16.26;100.00
13080;BME280;6606;49.154;9.280;2022-12-31T07:34:59;99587.22;;;16.19;100.00
13080;BME280;6606;49.154;9.280;2022-12-31T07:37:50;99605.59;;;16.24;100.00
13080;BME280;6606;49.154;9.280;2022-12-31T07:40:39;99599.06;;;16.28;100.00
13080;BME280;6606;49.154;9.280;2022-12-31T07:43:28;99613.75;;;16.22;100.00
13080;BME280;6606;49.154;9.280;2022-12-31T07:46:18;99613.53;;;16.25;100.00
13080;BME280;6606;49.154;9.280;2022-12-31T07:49:03;99607.31;;;16.25;100.00
13080;BME280;6606;49.154;9.280;2022-12-31T07:51:45;99614.97;;;16.30;100.00
13080;BME280;6606;49.154;9.280;2022-12-31T07:54:27;99613.06;;;16.32;100.00
13080;BME280;6606;49.154;9.280;2022-12-31T07:57:10;99615.50;;;16.35;100.00
13080;BME280;6606;49.154;9.280;2022-12-31T08:00:00;99621.28;;;16.53;100.00
13080;BME280;6606;49.154;9.280;2022-12-31T08:03:07;99620.09;;;16.57;100.00
13080;BME280;6606;49.154;9.280;2022-12-31T08:05:57;99630.19;;;16.64;100.00
13080;BME280;6606;49.154;9.280;2022-12-31T08:08:49;99633.59;;;16.66;100.00
13080;BME280;6606;49.154;9.280;2022-12-31T08:11:37;99644.88;;;16.83;100.00
13080;BME280;6606;49.154;9.280;2022-12-31T08:14:22;99654.50;;;16.85;100.00
13080;BME280;6606;49.154;9.280;2022-12-31T08:17:05;99646.88;;;17.03;100.00
13080;BME280;6606;49.154;9.280;2022-12-31T08:19:49;99654.16;;;17.01;100.00
13080;BME280;6606;49.154;9.280;2022-12-31T08:22:41;99655.41;;;17.20;100.00
13080;BME280;6606;49.154;9.280;2022-12-31T08:25:31;99655.66;;;17.28;100.00
13080;BME280;6606;49.154;9.280;2022-12-31T08:28:18;99656.50;;;17.17;100.00
13080;BME280;6606;49.154;9.280;2022-12-31T08:31:07;99654.06;;;17.14;100.00
13080;BME280;6606;49.154;9.280;2022-12-31T08:33:56;99651.13;;;17.06;100.00
13080;BME280;6606;49.154;9.280;2022-12-31T08:36:46;99659.75;;;16.98;100.00
13080;BME280;6606;49.154;9.280;2022-12-31T08:39:43;99665.28;;;17.08;100.00
13080;BME280;6606;49.154;9.280;2022-12-31T08:42:35;99676.47;;;17.13;100.00
13080;BME280;6606;49.154;9.280;2022-12-31T08:45:25;99672.69;;;17.04;100.00
13080;BME280;6606;49.154;9.280;2022-12-31T08:48:15;99680.00;;;17.13;100.00
13080;BME280;6606;49.154;9.280;2022-12-31T08:50:59;99663.94;;;17.13;100.00
13080;BME280;6606;49.154;9.280;2022-12-31T08:53:43;99678.81;;;17.18;100.00
13080;BME280;6606;49.154;9.280;2022-12-31T08:56:28;99688.19;;;17.34;100.00
13080;BME280;6606;49.154;9.280;2022-12-31T08:59:29;99696.13;;;17.36;100.00
13080;BME280;6606;49.154;9.280;2022-12-31T09:02:38;99710.47;;;17.35;100.00
13080;BME280;6606;49.154;9.280;2022-12-31T09:05:30;99691.00;;;17.33;100.00
13080;BME280;6606;49.154;9.280;2022-12-31T09:08:21;99688.19;;;17.23;100.00
13080;BME280;6606;49.154;9.280;2022-12-31T09:11:13;99691.00;;;17.33;100.00
13080;BME280;6606;49.154;9.280;2022-12-31T09:14:08;99689.44;;;17.42;100.00
13080;BME280;6606;49.154;9.280;2022-12-31T09:16:58;99699.41;;;17.51;100.00
13080;BME280;6606;49.154;9.280;2022-12-31T09:19:42;99693.47;;;17.47;100.00
13080;BME280;6606;49.154;9.280;2022-12-31T09:22:24;99691.03;;;17.55;100.00
13080;BME280;6606;49.154;9.280;2022-12-31T09:25:12;99699.16;;;17.54;100.00
13080;BME280;6606;49.154;9.280;2022-12-31T09:28:07;99694.69;;;17.66;100.00
13080;BME280;6606;49.154;9.280;2022-12-31T09:30:57;99692.34;;;17.50;100.00
13080;BME280;6606;49.154;9.280;2022-12-31T09:33:49;99689.56;;;17.63;100.00
13080;BME280;6606;49.154;9.280;2022-12-31T09:36:35;99689.19;;;17.67;100.00
13080;BME280;6606;49.154;9.280;2022-12-31T09:39:26;99689.56;;;17.74;100.00
13080;BME280;6606;49.154;9.280;2022-12-31T09:45:39;99681.03;;;17.69;100.00
13080;BME280;6606;49.154;9.280;2022-12-31T09:48:52;99689.56;;;17.63;100.00
13080;BME280;6606;49.154;9.280;2022-12-31T09:51:47;99688.84;;;17.83;100.00
13080;BME280;6606;49.154;9.280;2022-12-31T09:54:44;99699.31;;;17.64;100.00
13080;BME280;6606;49.154;9.280;2022-12-31T09:57:40;99694.31;;;17.59;100.00
13080;BME280;6606;49.154;9.280;2022-12-31T10:00:28;99702.72;;;17.66;100.00
13080;BME280;6606;49.154;9.280;2022-12-31T10:03:33;99706.38;;;17.76;100.00
13080;BME280;6606;49.154;9.280;2022-12-31T10:06:21;99702.81;;;17.75;100.00
13080;BME280;6606;49.154;9.280;2022-12-31T10:09:28;99707.75;;;17.82;100.00
13080;BME280;6606;49.154;9.280;2022-12-31T10:12:34;99711.78;;;17.87;100.00
13080;BME280;6606;49.154;9.280;2022-12-31T10:19:11;99699.59;;;17.94;100.00
13080;BME280;6606;49.154;9.280;2022-12-31T10:22:06;99697.84;;;18.05;100.00
13080;BME280;6606;49.154;9.280;2022-12-31T10:25:19;99697.09;;;18.14;100.00
13080;BME280;6606;49.154;9.280;2022-12-31T10:28:13;99694.13;;;18.39;100.00
13080;BME280;6606;49.154;9.280;2022-12-31T10:31:11;99696.97;;;18.59;100.00
13080;BME280;6606;49.154;9.280;2022-12-31T10:34:03;99699.06;;;18.55;100.00
13080;BME280;6606;49.154;9.280;2022-12-31T10:37:00;99703.19;;;18.59;100.00
13080;BME280;6606;49.154;9.280;2022-12-31T10:39:50;99695.03;;;18.61;100.00
13080;BME280;6606;49.154;9.280;2022-12-31T10:43:01;99706.94;;;18.68;100.00
13080;BME280;6606;49.154;9.280;2022-12-31T10:46:23;99706.25;;;18.66;100.00
13080;BME280;6606;49.154;9.280;2022-12-31T10:52:53;99698.63;;;18.82;100.00
13080;BME280;6606;49.154;9.280;2022-12-31T11:02:35;99676.53;;;19.00;100.00
13080;BME280;6606;49.154;9.280;2022-12-31T11:12:04;99690.50;;;18.94;100.00
13080;BME280;6606;49.154;9.280;2022-12-31T11:15:02;99686.72;;;19.17;100.00
13080;BME280;6606;49.154;9.280;2022-12-31T11:17:59;99674.50;;;19.13;100.00
13080;BME280;6606;49.154;9.280;2022-12-31T11:20:57;99670.47;;;19.19;100.00
13080;BME280;6606;49.154;9.280;2022-12-31T11:23:54;99674.91;;;19.29;100.00
13080;BME280;6606;49.154;9.280;2022-12-31T11:26:48;99670.03;;;19.23;100.00
13080;BME280;6606;49.154;9.280;2022-12-31T11:29:47;99675.16;;;19.26;100.00
13080;BME280;6606;49.154;9.280;2022-12-31T11:32:46;99683.66;;;19.31;100.00
13080;BME280;6606;49.154;9.280;2022-12-31T11:35:41;99681.72;;;19.33;100.00
13080;BME280;6606;49.154;9.280;2022-12-31T11:38:27;99683.09;;;19.28;100.00
13080;BME280;6606;49.154;9.280;2022-12-31T11:41:16;99673.19;;;19.28;100.00
13080;BME280;6606;49.154;9.280;2022-12-31T11:44:11;99671.56;;;19.37;100.00
13080;BME280;6606;49.154;9.280;2022-12-31T11:47:06;99677.25;;;19.44;100.00
13080;BME280;6606;49.154;9.280;2022-12-31T11:49:59;99675.09;;;19.38;100.00
13080;BME280;6606;49.154;9.280;2022-12-31T11:52:51;99661.38;;;19.41;100.00
13080;BME280;6606;49.154;9.280;2022-12-31T11:55:42;99674.19;;;19.58;100.00
13080;BME280;6606;49.154;9.280;2022-12-31T11:58:29;99668.03;;;19.67;100.00
13080;BME280;6606;49.154;9.280;2022-12-31T12:01:17;99667.50;;;19.73;100.00
13080;BME280;6606;49.154;9.280;2022-12-31T12:04:01;99670.91;;;19.75;100.00
13080;BME280;6606;49.154;9.280;2022-12-31T12:06:42;99670.06;;;19.75;100.00
13080;BME280;6606;49.154;9.280;2022-12-31T12:09:27;99669.53;;;19.91;100.00
13080;BME280;6606;49.154;9.280;2022-12-31T12:12:11;99663.44;;;19.89;100.00
13080;BME280;6606;49.154;9.280;2022-12-31T12:14:54;99672.63;;;19.86;100.00
13080;BME280;6606;49.154;9.280;2022-12-31T12:17:36;99666.16;;;19.98;100.00
13080;BME280;6606;49.154;9.280;2022-12-31T12:20:22;99670.34;;;19.72;100.00
13080;BME280;6606;49.154;9.280;2022-12-31T12:23:13;99663.44;;;19.58;100.00
13080;BME280;6606;49.154;9.280;2022-12-31T12:25:56;99658.59;;;19.52;100.00
13080;BME280;6606;49.154;9.280;2022-12-31T12:28:43;99649.41;;;19.54;100.00
13080;BME280;6606;49.154;9.280;2022-12-31T12:31:27;99650.13;;;19.57;100.00
13080;BME280;6606;49.154;9.280;2022-12-31T12:34:22;99644.72;;;19.47;100.00
13080;BME280;6606;49.154;9.280;2022-12-31T12:37:06;99652.31;;;19.42;100.00
13080;BME280;6606;49.154;9.280;2022-12-31T12:39:54;99652.53;;;19.29;100.00
13080;BME280;6606;49.154;9.280;2022-12-31T12:42:45;99650.97;;;19.26;100.00
13080;BME280;6606;49.154;9.280;2022-12-31T12:45:35;99641.94;;;19.27;100.00
13080;BME280;6606;49.154;9.280;2022-12-31T12:48:27;99634.59;;;19.29;100.00
13080;BME280;6606;49.154;9.280;2022-12-31T12:51:21;99638.09;;;19.51;100.00
13080;BME280;6606;49.154;9.280;2022-12-31T12:54:14;99632.25;;;19.46;100.00
13080;BME280;6606;49.154;9.280;2022-12-31T12:57:03;99622.91;;;19.50;100.00
13080;BME280;6606;49.154;9.280;2022-12-31T13:03:14;99617.03;;;19.56;100.00
13080;BME280;6606;49.154;9.280;2022-12-31T13:06:18;99615.84;;;19.49;100.00
13080;BME280;6606;49.154;9.280;2022-12-31T13:09:20;99615.41;;;19.44;100.00
13080;BME280;6606;49.154;9.280;2022-12-31T13:12:13;99607.34;;;19.44;100.00
13080;BME280;6606;49.154;9.280;2022-12-31T13:15:03;99621.22;;;19.49;100.00
13080;BME280;6606;49.154;9.280;2022-12-31T13:17:58;99610.66;;;19.26;100.00
13080;BME280;6606;49.154;9.280;2022-12-31T13:21:09;99615.34;;;19.24;100.00
13080;BME280;6606;49.154;9.280;2022-12-31T13:24:05;99616.03;;;19.26;100.00
13080;BME280;6606;49.154;9.280;2022-12-31T13:26:52;99612.66;;;19.24;100.00
13080;BME280;6606;49.154;9.280;2022-12-31T13:29:38;99610.25;;;19.31;100.00
13080;BME280;6606;49.154;9.280;2022-12-31T13:32:33;99609.78;;;19.16;100.00
13080;BME280;6606;49.154;9.280;2022-12-31T13:35:23;99615.16;;;19.16;100.00
13080;BME280;6606;49.154;9.280;2022-12-31T13:38:10;99607.78;;;19.18;100.00
13080;BME280;6606;49.154;9.280;2022-12-31T13:40:59;99601.84;;;19.15;100.00
13080;BME280;6606;49.154;9.280;2022-12-31T13:43:48;99602.50;;;19.07;100.00
13080;BME280;6606;49.154;9.280;2022-12-31T13:46:37;99597.00;;;19.08;100.00
13080;BME280;6606;49.154;9.280;2022-12-31T13:49:25;99607.16;;;19.05;100.00
13080;BME280;6606;49.154;9.280;2022-12-31T13:52:20;99590.19;;;19.04;100.00
13080;BME280;6606;49.154;9.280;2022-12-31T13:55:11;99601.13;;;18.92;100.00
13080;BME280;6606;49.154;9.280;2022-12-31T13:58:02;99601.13;;;18.92;100.00
13080;BME280;6606;49.154;9.280;2022-12-31T14:00:48;99604.38;;;18.85;100.00
13080;BME280;6606;49.154;9.280;2022-12-31T14:03:38;99592.13;;;18.93;100.00
13080;BME280;6606;49.154;9.280;2022-12-31T14:06:27;99594.34;;;18.87;100.00
13080;BME280;6606;49.154;9.280;2022-12-31T14:09:14;99602.22;;;18.79;100.00
13080;BME280;6606;49.154;9.280;2022-12-31T14:12:08;99601.59;;;18.76;100.00
13080;BME280;6606;49.154;9.280;2022-12-31T14:15:02;99606.38;;;18.72;100.00
13080;BME280;6606;49.154;9.280;2022-12-31T14:17:53;99600.34;;;18.59;100.00
13080;BME280;6606;49.154;9.280;2022-12-31T14:20:45;99603.34;;;18.44;100.00
13080;BME280;6606;49.154;9.280;2022-12-31T14:23:36;99602.47;;;18.44;100.00
13080;BME280;6606;49.154;9.280;2022-12-31T14:26:23;99596.19;;;18.34;100.00
13080;BME280;6606;49.154;9.280;2022-12-31T14:29:17;99597.13;;;18.12;100.00
13080;BME280;6606;49.154;9.280;2022-12-31T14:32:42;99595.91;;;18.05;100.00
13080;BME280;6606;49.154;9.280;2022-12-31T14:35:39;99601.03;;;18.08;100.00
13080;BME280;6606;49.154;9.280;2022-12-31T14:38:36;99588.16;;;17.90;100.00
13080;BME280;6606;49.154;9.280;2022-12-31T14:41:41;99593.91;;;17.74;100.00
13080;BME280;6606;49.154;9.280;2022-12-31T14:44:35;99599.75;;;17.68;100.00
13080;BME280;6606;49.154;9.280;2022-12-31T14:47:29;99598.56;;;17.61;100.00
13080;BME280;6606;49.154;9.280;2022-12-31T14:50:16;99607.69;;;17.47;100.00
13080;BME280;6606;49.154;9.280;2022-12-31T14:53:14;99614.91;;;17.47;100.00
13080;BME280;6606;49.154;9.280;2022-12-31T14:56:00;99621.47;;;17.43;100.00
13080;BME280;6606;49.154;9.280;2022-12-31T14:58:54;99614.53;;;17.29;100.00
13080;BME280;6606;49.154;9.280;2022-12-31T15:01:43;99617.66;;;17.11;100.00
13080;BME280;6606;49.154;9.280;2022-12-31T15:04:31;99618.66;;;16.99;100.00
13080;BME280;6606;49.154;9.280;2022-12-31T15:07:19;99608.88;;;16.98;100.00
13080;BME280;6606;49.154;9.280;2022-12-31T15:10:13;99612.28;;;16.89;100.00
13080;BME280;6606;49.154;9.280;2022-12-31T15:13:03;99609.13;;;16.84;100.00
13080;BME280;6606;49.154;9.280;2022-12-31T15:15:59;99614.97;;;16.89;100.00
13080;BME280;6606;49.154;9.280;2022-12-31T15:18:59;99610.81;;;16.85;100.00
13080;BME280;6606;49.154;9.280;2022-12-31T15:21:53;99611.44;;;16.88;100.00
13080;BME280;6606;49.154;9.280;2022-12-31T15:24:42;99614.19;;;16.76;100.00